Time;durP1;ratioP1;P1;durP2;ratioP2;P2;SDS_P1;SDS_P2;PMS_P1;PMS_P2;Temp;Humidity;BMP_temperature;BMP_pressure;BME280_temperature;BME280_humidity;BME280_pressure;Samples;Min_cycle;Max_cycle;Signal;HPM_P1;HPM_P2
2023/11/13 00:02:09;;;;;;;3.60;2.80;;;;;;;5.32;84.71;96027.16;107095;1277;22655;-87
2023/11/13 00:04:35;;;;;;;3.30;2.10;;;;;;;5.31;84.90;96022.88;107224;1277;22547;-86
2023/11/13 00:07:01;;;;;;;2.60;2.10;;;;;;;5.31;85.03;96022.73;107116;1277;137843;-88
2023/11/13 00:09:27;;;;;;;2.30;1.70;;;;;;;5.31;84.85;96021.08;107351;1276;22589;-87
2023/11/13 00:11:53;;;;;;;2.10;1.90;;;;;;;5.31;85.02;96023.14;107109;1268;138394;-88
2023/11/13 00:14:20;;;;;;;4.00;2.30;;;;;;;5.31;85.04;96020.66;107224;1271;22555;-88
2023/11/13 00:16:46;;;;;;;4.30;2.30;;;;;;;5.32;85.00;96022.17;107213;1277;22548;-88
2023/11/13 00:19:12;;;;;;;2.20;2.00;;;;;;;5.32;85.04;96020.63;107150;1276;137910;-87
2023/11/13 00:21:38;;;;;;;3.70;2.30;;;;;;;5.32;85.11;96021.11;107230;1277;22539;-87
2023/11/13 00:24:05;;;;;;;2.80;2.50;;;;;;;5.33;85.00;96031.70;107204;1276;138019;-87
2023/11/13 00:26:31;;;;;;;2.60;1.90;;;;;;;5.33;85.04;96032.54;107278;1274;22533;-88
2023/11/13 00:28:58;;;;;;;2.80;2.00;;;;;;;5.33;85.11;96028.58;107240;1277;22544;-87
2023/11/13 00:31:24;;;;;;;3.10;1.80;;;;;;;5.33;85.06;96035.60;107139;1277;137834;-87
2023/11/13 00:33:49;;;;;;;2.30;1.90;;;;;;;5.33;84.65;96035.11;107284;1276;22540;-87
2023/11/13 00:36:16;;;;;;;2.30;1.90;;;;;;;5.33;84.73;96037.52;107126;1277;137813;-87
2023/11/13 00:38:42;;;;;;;7.80;2.50;;;;;;;5.33;84.96;96038.66;107303;1255;22544;-87
2023/11/13 00:41:14;;;;;;;2.70;2.00;;;;;;;5.35;85.20;96036.98;107130;1277;138423;-87
2023/11/13 00:43:40;;;;;;;4.40;2.40;;;;;;;5.35;85.27;96037.27;107254;1277;24267;-87
2023/11/13 00:46:07;;;;;;;2.70;2.20;;;;;;;5.34;85.10;96042.34;107259;1277;22893;-88
2023/11/13 00:48:37;;;;;;;3.30;1.90;;;;;;;5.33;85.19;96045.00;107192;1277;137806;-87
2023/11/13 00:51:04;;;;;;;1.90;1.70;;;;;;;5.33;85.22;96045.59;107271;1277;22587;-87
2023/11/13 00:53:36;;;;;;;2.50;1.80;;;;;;;5.33;84.98;96047.32;107165;1276;138003;-87
2023/11/13 00:56:06;;;;;;;2.20;1.70;;;;;;;5.32;85.08;96049.93;107223;1277;22955;-88
2023/11/13 00:58:34;;;;;;;2.80;1.90;;;;;;;5.32;84.76;96047.70;107069;1277;25326;-87
2023/11/13 01:01:01;;;;;;;2.80;1.90;;;;;;;5.33;85.36;96051.05;107136;1271;137805;-87
2023/11/13 01:03:28;;;;;;;2.40;2.00;;;;;;;5.33;84.97;96054.17;106926;1277;22697;-87
2023/11/13 01:05:54;;;;;;;2.10;1.60;;;;;;;5.33;85.07;96059.01;107186;1272;137842;-87
2023/11/13 01:08:20;;;;;;;1.90;1.70;;;;;;;5.32;84.69;96059.94;107127;1277;22545;-87
2023/11/13 01:10:47;;;;;;;4.40;2.20;;;;;;;5.32;84.88;96060.55;107241;1277;22534;-87
2023/11/13 01:13:13;;;;;;;3.20;2.90;;;;;;;5.33;84.98;96056.55;107158;1276;137850;-87
2023/11/13 01:15:39;;;;;;;3.00;2.00;;;;;;;5.33;84.95;96055.05;107243;1277;22654;-87
2023/11/13 01:18:04;;;;;;;3.00;2.30;;;;;;;5.32;84.78;96053.60;107109;1277;137799;-87
2023/11/13 01:20:31;;;;;;;1.80;1.70;;;;;;;5.31;84.79;96052.12;107295;1275;22588;-87
2023/11/13 01:22:57;;;;;;;2.80;1.80;;;;;;;5.31;84.61;96051.44;107320;1276;22548;-88
2023/11/13 01:25:23;;;;;;;2.70;1.70;;;;;;;5.31;84.69;96053.18;107154;1267;137597;-87
2023/11/13 01:27:48;;;;;;;2.10;1.40;;;;;;;5.31;84.67;96051.96;107037;1277;23894;-88
2023/11/13 01:30:14;;;;;;;3.00;1.90;;;;;;;5.32;84.24;96050.15;107109;1277;138428;-87
2023/11/13 01:32:40;;;;;;;2.10;1.70;;;;;;;5.31;84.04;96052.98;107235;1277;24162;-87
2023/11/13 01:35:06;;;;;;;2.60;1.80;;;;;;;5.32;84.25;96053.25;107212;1277;138099;-88
2023/11/13 01:37:32;;;;;;;2.30;1.70;;;;;;;5.32;84.17;96053.38;110265;1276;22195;-88
2023/11/13 01:39:58;;;;;;;1.80;1.50;;;;;;;5.33;84.24;96049.02;110310;1277;22191;-88
2023/11/13 01:42:24;;;;;;;3.30;1.50;;;;;;;5.34;84.21;96044.77;110208;1277;139128;-89
2023/11/13 01:44:51;;;;;;;2.30;1.60;;;;;;;5.35;84.11;96047.58;110333;1277;22455;-86
2023/11/13 01:47:17;;;;;;;1.70;1.20;;;;;;;5.36;83.67;96044.36;110262;1277;138438;-85
2023/11/13 01:49:43;;;;;;;3.40;1.60;;;;;;;5.37;83.14;96045.65;107723;1277;23884;-87
2023/11/13 01:52:09;;;;;;;1.90;1.40;;;;;;;5.39;83.42;96039.69;107245;1276;25067;-88
2023/11/13 01:54:35;;;;;;;1.70;1.40;;;;;;;5.40;83.83;96037.46;107163;1277;137837;-88
2023/11/13 01:57:03;;;;;;;1.60;1.40;;;;;;;5.40;83.59;96036.77;106901;1277;22548;-87
2023/11/13 01:59:29;;;;;;;1.60;1.50;;;;;;;5.39;83.46;96043.39;107708;1277;138840;-87
2023/11/13 02:01:55;;;;;;;1.80;1.40;;;;;;;5.39;83.28;96048.58;106957;1278;22562;-87
2023/11/13 02:04:21;;;;;;;2.10;1.40;;;;;;;5.39;83.50;96053.70;107261;1277;22554;-87
2023/11/13 02:06:47;;;;;;;2.60;1.60;;;;;;;5.39;83.15;96061.27;107120;1277;139723;-87
2023/11/13 02:09:15;;;;;;;2.70;1.50;;;;;;;5.39;83.24;96057.34;107273;1277;25383;-87
2023/11/13 02:11:42;;;;;;;2.60;1.50;;;;;;;5.39;83.09;96056.50;106897;1273;138066;-87
2023/11/13 02:14:08;;;;;;;2.00;1.40;;;;;;;5.38;82.77;96057.80;107015;1278;25546;-86
2023/11/13 02:16:35;;;;;;;3.40;1.60;;;;;;;5.37;82.42;96064.23;107231;1277;25422;-86
2023/11/13 02:19:00;;;;;;;1.80;1.30;;;;;;;5.37;82.80;96066.61;107154;1277;137946;-87
2023/11/13 02:21:26;;;;;;;1.80;1.60;;;;;;;5.36;82.32;96065.84;107173;1277;22629;-87
2023/11/13 02:23:52;;;;;;;1.80;1.40;;;;;;;5.37;82.30;96070.95;107111;1275;137792;-87
2023/11/13 02:26:18;;;;;;;1.60;1.30;;;;;;;5.36;82.05;96070.80;106973;1279;23935;-87
2023/11/13 02:28:44;;;;;;;1.80;1.60;;;;;;;5.36;81.73;96072.90;107232;1277;22547;-87
2023/11/13 02:31:10;;;;;;;2.20;1.70;;;;;;;5.36;81.66;96072.05;107201;1276;137821;-86
2023/11/13 02:33:36;;;;;;;1.90;1.40;;;;;;;5.37;81.37;96073.68;107189;1277;25252;-87
2023/11/13 02:36:02;;;;;;;1.20;1.10;;;;;;;5.37;81.50;96073.50;107202;1276;138263;-87
2023/11/13 02:38:28;;;;;;;1.50;1.10;;;;;;;5.37;81.28;96068.86;107304;1275;22557;-87
2023/11/13 02:40:56;;;;;;;2.90;1.20;;;;;;;5.37;81.14;96067.30;107263;1277;22538;-87
2023/11/13 02:43:22;;;;;;;2.20;1.20;;;;;;;5.38;81.35;96068.10;107173;1263;138012;-87
2023/11/13 02:45:48;;;;;;;1.90;1.10;;;;;;;5.39;81.26;96073.48;107254;1277;23044;-87
2023/11/13 02:48:14;;;;;;;1.40;1.20;;;;;;;5.39;81.36;96076.09;107185;1276;137836;-86
2023/11/13 02:50:40;;;;;;;1.70;1.20;;;;;;;5.39;81.39;96077.92;107238;1277;24252;-86
2023/11/13 02:53:06;;;;;;;2.10;1.00;;;;;;;5.40;81.71;96080.95;107173;1277;138774;-86
2023/11/13 02:55:32;;;;;;;1.20;1.00;;;;;;;5.40;81.14;96078.66;107264;1277;22542;-86
2023/11/13 02:57:58;;;;;;;1.70;1.10;;;;;;;5.41;82.18;96079.08;107235;1277;22546;-87
2023/11/13 03:00:24;;;;;;;1.30;1.10;;;;;;;5.41;82.16;96074.27;107183;1277;137961;-87
2023/11/13 03:02:50;;;;;;;1.60;1.10;;;;;;;5.40;81.78;96073.15;107225;1276;22535;-87
2023/11/13 03:05:16;;;;;;;2.00;1.10;;;;;;;5.40;81.46;96073.51;107153;1276;138586;-87
2023/11/13 03:07:46;;;;;;;1.30;1.00;;;;;;;5.39;82.32;96072.89;107045;1277;22539;-86
2023/11/13 03:10:12;;;;;;;1.30;1.10;;;;;;;5.38;81.49;96071.67;107208;1277;25389;-86
2023/11/13 03:12:41;;;;;;;2.30;1.20;;;;;;;5.36;80.95;96068.42;107166;1272;137859;-86
2023/11/13 03:15:09;;;;;;;1.20;1.00;;;;;;;5.36;81.47;96066.89;106976;1277;24051;-87
2023/11/13 03:17:35;;;;;;;2.30;1.10;;;;;;;5.36;80.96;96068.64;107008;1276;138965;-87
2023/11/13 03:20:03;;;;;;;2.80;1.00;;;;;;;5.35;80.73;96063.20;107123;1278;22585;-87
2023/11/13 03:22:29;;;;;;;1.10;0.90;;;;;;;5.36;81.85;96065.05;107179;1278;22571;-87
2023/11/13 03:24:55;;;;;;;1.50;1.10;;;;;;;5.35;82.82;96064.62;106990;1277;137828;-87
2023/11/13 03:27:21;;;;;;;2.70;1.00;;;;;;;5.34;82.40;96058.88;107213;1277;22546;-87
2023/11/13 03:29:47;;;;;;;1.40;1.00;;;;;;;5.31;81.74;96056.76;107177;1277;138507;-86
2023/11/13 03:32:13;;;;;;;1.40;1.00;;;;;;;5.30;81.43;96053.12;107253;1276;25190;-87
2023/11/13 03:34:40;;;;;;;1.20;1.00;;;;;;;5.29;80.22;96052.56;107289;1276;22567;-87
2023/11/13 03:37:06;;;;;;;1.90;1.00;;;;;;;5.30;80.13;96050.77;107154;1278;137971;-86
2023/11/13 03:39:32;;;;;;;2.50;1.10;;;;;;;5.29;79.77;96052.15;107234;1277;24290;-86
2023/11/13 03:41:58;;;;;;;3.70;1.60;;;;;;;5.30;79.94;96046.39;107150;1277;137813;-86
2023/11/13 03:44:24;;;;;;;1.70;1.20;;;;;;;5.31;79.83;96048.34;107261;1270;23327;-87
2023/11/13 03:46:51;;;;;;;6.30;5.70;;;;;;;5.31;78.96;96049.06;107310;1273;22692;-86
2023/11/13 03:49:17;;;;;;;2.80;2.40;;;;;;;5.31;78.31;96048.03;107173;1276;138473;-87
2023/11/13 03:51:43;;;;;;;4.90;4.10;;;;;;;5.32;77.76;96052.02;107303;1276;24274;-87
2023/11/13 03:54:09;;;;;;;3.80;2.60;;;;;;;5.33;77.29;96048.61;107156;1277;137838;-87
2023/11/13 03:56:35;;;;;;;2.50;1.40;;;;;;;5.35;76.94;96050.28;107265;1277;22786;-87
2023/11/13 03:59:01;;;;;;;2.00;1.30;;;;;;;5.37;77.38;96045.98;107251;1278;25401;-87
2023/11/13 04:01:27;;;;;;;1.70;1.40;;;;;;;5.39;77.31;96043.27;107189;1276;138243;-87
2023/11/13 04:03:53;;;;;;;1.80;1.60;;;;;;;5.39;77.48;96041.34;107161;1276;25423;-87
2023/11/13 04:06:19;;;;;;;3.70;1.70;;;;;;;5.39;77.49;96039.27;107180;1277;138460;-87
2023/11/13 04:08:45;;;;;;;1.60;1.10;;;;;;;5.39;77.57;96038.08;107271;1277;22542;-87
2023/11/13 04:11:11;;;;;;;1.10;1.00;;;;;;;5.38;77.76;96041.78;107108;1277;138065;-86
2023/11/13 04:13:38;;;;;;;1.30;0.90;;;;;;;5.37;79.45;96041.33;107186;1277;23949;-87
2023/11/13 04:16:07;;;;;;;2.10;1.20;;;;;;;5.35;80.58;96042.11;107229;1267;22848;-87
2023/11/13 04:18:33;;;;;;;1.20;0.90;;;;;;;5.31;81.37;96036.11;110026;1272;138570;-88
2023/11/13 04:20:58;;;;;;;3.30;1.30;;;;;;;5.25;81.15;96032.27;110323;1277;22311;-88
2023/11/13 04:23:25;;;;;;;2.20;1.30;;;;;;;5.20;80.30;96030.27;110195;1277;139438;-87
2023/11/13 04:25:51;;;;;;;2.70;1.20;;;;;;;5.17;80.78;96027.98;110288;1277;22211;-87
2023/11/13 04:28:19;;;;;;;2.30;1.30;;;;;;;5.15;81.91;96030.30;107842;1278;23893;-87
2023/11/13 04:30:46;;;;;;;1.70;1.10;;;;;;;5.11;82.46;96032.71;107156;1276;138618;-86
2023/11/13 04:33:13;;;;;;;1.70;1.40;;;;;;;5.08;82.02;96032.58;110233;1272;22463;-88
2023/11/13 04:35:39;;;;;;;1.50;1.40;;;;;;;5.03;82.08;96030.42;110043;1277;138201;-87
2023/11/13 04:38:04;;;;;;;2.40;1.30;;;;;;;5.00;83.38;96025.64;110296;1277;23133;-87
2023/11/13 04:40:31;;;;;;;1.70;1.20;;;;;;;4.96;82.97;96025.67;110323;1277;22192;-88
2023/11/13 04:42:59;;;;;;;2.30;1.70;;;;;;;4.92;81.68;96028.50;108832;1277;139293;-87
2023/11/13 04:45:25;;;;;;;1.50;1.40;;;;;;;4.92;82.60;96026.50;107233;1276;24212;-86
2023/11/13 04:47:51;;;;;;;2.00;1.40;;;;;;;4.91;83.98;96031.36;107158;1277;137852;-87
2023/11/13 04:50:18;;;;;;;1.70;1.50;;;;;;;4.90;84.50;96038.73;107012;1274;22647;-86
2023/11/13 04:52:44;;;;;;;1.40;1.30;;;;;;;4.87;83.49;96037.80;107242;1277;22532;-87
2023/11/13 04:55:10;;;;;;;3.40;1.70;;;;;;;4.83;83.26;96039.45;107129;1270;137876;-87
2023/11/13 04:57:36;;;;;;;1.30;1.10;;;;;;;4.82;83.46;96043.23;107186;1265;22549;-87
2023/11/13 05:00:05;;;;;;;2.20;1.60;;;;;;;4.80;83.60;96049.92;106930;1274;138025;-87
2023/11/13 05:02:36;;;;;;;1.90;1.70;;;;;;;4.79;84.06;96057.58;107203;1276;23635;-87
2023/11/13 05:05:04;;;;;;;2.80;2.40;;;;;;;4.77;83.70;96060.38;107237;1270;23923;-87
2023/11/13 05:07:30;;;;;;;2.60;2.40;;;;;;;4.77;83.72;96062.63;107255;1277;22534;-87
2023/11/13 05:09:56;;;;;;;4.20;2.00;;;;;;;4.77;83.74;96057.64;107251;1277;25565;-87
2023/11/13 05:12:22;;;;;;;3.00;2.20;;;;;;;4.78;84.16;96049.98;107101;1277;137922;-87
2023/11/13 05:14:48;;;;;;;2.30;2.10;;;;;;;4.78;83.98;96049.83;107235;1277;22584;-87
2023/11/13 05:17:15;;;;;;;2.80;1.80;;;;;;;4.78;84.45;96049.64;110196;1276;138044;-87
2023/11/13 05:19:41;;;;;;;2.20;2.00;;;;;;;4.79;84.83;96059.78;110322;1266;23056;-88
2023/11/13 05:22:07;;;;;;;3.00;2.30;;;;;;;4.80;84.61;96065.89;109094;1277;25453;-87
2023/11/13 05:24:33;;;;;;;1.70;1.50;;;;;;;4.83;85.50;96068.54;107013;1277;138239;-87
2023/11/13 05:26:59;;;;;;;5.00;3.20;;;;;;;4.86;85.50;96064.10;107243;1271;26186;-87
2023/11/13 05:29:26;;;;;;;5.30;3.00;;;;;;;4.87;84.58;96065.71;106964;1274;138575;-87
2023/11/13 05:31:52;;;;;;;2.70;2.20;;;;;;;4.89;84.45;96071.41;107283;1263;22550;-87
2023/11/13 05:34:19;;;;;;;4.20;3.00;;;;;;;4.90;84.05;96069.89;107261;1276;24199;-87
2023/11/13 05:36:46;;;;;;;2.90;2.20;;;;;;;4.92;84.27;96069.73;110195;1277;138493;-87
2023/11/13 05:39:12;;;;;;;2.90;2.00;;;;;;;4.93;84.53;96064.81;110325;1277;23210;-87
2023/11/13 05:41:38;;;;;;;2.80;2.20;;;;;;;4.96;84.27;96070.19;108701;1277;137965;-87
2023/11/13 05:44:04;;;;;;;3.10;2.60;;;;;;;4.98;84.26;96075.60;107201;1273;23932;-87
2023/11/13 05:46:30;;;;;;;7.50;4.20;;;;;;;5.00;83.88;96076.60;106926;1277;23263;-87
2023/11/13 05:48:56;;;;;;;4.50;3.10;;;;;;;5.03;84.25;96082.65;106957;1277;138642;-86
2023/11/13 05:51:22;;;;;;;3.50;2.50;;;;;;;5.03;84.39;96087.29;107249;1277;23856;-87
2023/11/13 05:53:48;;;;;;;5.50;3.80;;;;;;;5.03;83.94;96092.38;107165;1271;138147;-86
2023/11/13 05:56:16;;;;;;;4.00;3.20;;;;;;;5.04;84.18;96093.84;107288;1277;24327;-87
2023/11/13 05:58:42;;;;;;;7.80;4.40;;;;;;;5.05;83.83;96088.48;107285;1276;22545;-86
2023/11/13 06:01:08;;;;;;;6.60;3.40;;;;;;;5.06;84.23;96086.65;106958;1267;138030;-86
2023/11/13 06:03:34;;;;;;;5.10;3.20;;;;;;;5.06;84.17;96081.34;107146;1277;24260;-87
2023/11/13 06:06:00;;;;;;;3.00;2.30;;;;;;;5.06;83.49;96077.87;107164;1276;137886;-87
2023/11/13 06:08:26;;;;;;;3.40;2.50;;;;;;;5.07;83.70;96075.06;107234;1277;24278;-87
2023/11/13 06:10:52;;;;;;;4.30;2.70;;;;;;;5.08;83.82;96078.36;107250;1277;22570;-87
2023/11/13 06:13:19;;;;;;;3.50;2.10;;;;;;;5.09;83.76;96075.88;107194;1276;137836;-87
2023/11/13 06:15:45;;;;;;;4.50;2.40;;;;;;;5.09;83.69;96075.20;107253;1276;22547;-87
2023/11/13 06:18:11;;;;;;;2.70;2.00;;;;;;;5.08;83.62;96080.25;107154;1270;137873;-87
2023/11/13 06:20:37;;;;;;;4.00;2.60;;;;;;;5.08;83.47;96080.77;107236;1277;24248;-87
2023/11/13 06:23:03;;;;;;;2.80;1.90;;;;;;;5.08;83.37;96078.00;107233;1276;22538;-86
2023/11/13 06:25:29;;;;;;;3.00;2.30;;;;;;;5.08;83.96;96078.39;107245;1273;24353;-86
2023/11/13 06:27:56;;;;;;;2.70;2.20;;;;;;;5.08;83.55;96085.72;107283;1270;25290;-86
2023/11/13 06:30:23;;;;;;;3.30;2.50;;;;;;;5.07;83.57;96084.76;107160;1277;138885;-87
2023/11/13 06:32:49;;;;;;;2.40;2.20;;;;;;;5.06;83.62;96092.80;107234;1277;24200;-86
2023/11/13 06:35:15;;;;;;;2.80;2.20;;;;;;;5.05;84.16;96101.85;107158;1267;138585;-87
2023/11/13 06:37:42;;;;;;;4.50;2.90;;;;;;;5.05;84.46;96108.34;107191;1274;24274;-87
2023/11/13 06:40:08;;;;;;;4.90;2.70;;;;;;;5.05;84.31;96111.95;107316;1277;22560;-87
2023/11/13 06:42:34;;;;;;;14.10;7.30;;;;;;;5.05;84.35;96116.55;107130;1276;138446;-86
2023/11/13 06:45:01;;;;;;;5.20;3.90;;;;;;;5.06;84.09;96120.27;107296;1276;22529;-86
2023/11/13 06:47:27;;;;;;;8.20;4.20;;;;;;;5.07;84.30;96124.06;106930;1272;138070;-87
2023/11/13 06:49:53;;;;;;;8.10;4.40;;;;;;;5.11;84.17;96124.07;107217;1277;23928;-87
2023/11/13 06:52:19;;;;;;;8.60;4.70;;;;;;;5.13;83.99;96126.46;107275;1277;22536;-87
2023/11/13 06:54:45;;;;;;;10.30;6.00;;;;;;;5.16;83.75;96134.01;107165;1277;138062;-86
2023/11/13 06:57:12;;;;;;;26.20;12.70;;;;;;;5.19;83.36;96138.68;107206;1277;22664;-86
2023/11/13 06:59:40;;;;;;;10.60;8.10;;;;;;;5.22;83.80;96138.56;107138;1257;138449;-87
2023/11/13 07:02:06;;;;;;;9.80;6.40;;;;;;;5.25;84.13;96137.60;107252;1277;22582;-87
2023/11/13 07:04:32;;;;;;;8.70;5.30;;;;;;;5.27;83.96;96137.77;107272;1276;24324;-87
2023/11/13 07:07:01;;;;;;;6.80;5.60;;;;;;;5.29;84.26;96133.27;107063;1270;138401;-87
2023/11/13 07:09:27;;;;;;;5.70;4.40;;;;;;;5.31;84.36;96133.88;107280;1277;25338;-87
2023/11/13 07:11:53;;;;;;;7.20;4.30;;;;;;;5.34;84.83;96130.31;106914;1277;137959;-87
2023/11/13 07:14:20;;;;;;;6.10;3.50;;;;;;;5.36;84.87;96128.00;107176;1264;23112;-87
2023/11/13 07:16:46;;;;;;;5.50;3.80;;;;;;;5.38;84.80;96135.54;107186;1277;25240;-86
2023/11/13 07:19:17;;;;;;;6.50;4.80;;;;;;;5.40;85.16;96135.54;107192;1277;137919;-87
2023/11/13 07:21:43;;;;;;;4.30;3.70;;;;;;;5.41;85.15;96135.77;107198;1277;23330;-87
2023/11/13 07:24:09;;;;;;;4.40;3.40;;;;;;;5.42;85.56;96136.31;107107;1276;138974;-87
2023/11/13 07:26:35;;;;;;;4.50;4.00;;;;;;;5.44;85.68;96135.32;107278;1277;23871;-87
2023/11/13 07:29:02;;;;;;;4.40;4.00;;;;;;;5.47;85.81;96137.45;107023;1270;24401;-86
2023/11/13 07:31:27;;;;;;;6.80;3.60;;;;;;;5.49;85.92;96142.93;107146;1277;137664;-87
2023/11/13 07:33:54;;;;;;;5.00;3.90;;;;;;;5.51;86.02;96145.25;107245;1277;26507;-87
2023/11/13 07:36:21;;;;;;;4.80;3.80;;;;;;;5.52;86.23;96147.58;107191;1276;138577;-87
2023/11/13 07:38:46;;;;;;;5.20;4.10;;;;;;;5.55;86.50;96151.58;107057;1277;26418;-87
2023/11/13 07:41:12;;;;;;;6.20;4.50;;;;;;;5.57;86.59;96151.41;107134;1276;139172;-87
2023/11/13 07:43:39;;;;;;;4.70;3.90;;;;;;;5.60;86.53;96154.64;107275;1276;23089;-86
2023/11/13 07:46:07;;;;;;;5.60;4.90;;;;;;;5.61;86.73;96150.90;107074;1270;24314;-87
2023/11/13 07:48:36;;;;;;;6.00;4.20;;;;;;;5.64;87.24;96150.91;106873;1274;138116;-87
2023/11/13 07:51:03;;;;;;;5.40;4.50;;;;;;;5.67;87.34;96150.95;107082;1277;24333;-87
2023/11/13 07:53:29;;;;;;;5.40;4.20;;;;;;;5.70;87.18;96150.75;107001;1277;138119;-87
2023/11/13 07:55:55;;;;;;;5.10;4.50;;;;;;;5.72;86.72;96152.40;107209;1276;22552;-87
2023/11/13 07:58:22;;;;;;;4.30;3.90;;;;;;;5.75;87.09;96156.01;107244;1275;22539;-87
2023/11/13 08:00:52;;;;;;;6.90;4.90;;;;;;;5.79;86.81;96156.37;106940;1277;138996;-88
2023/11/13 08:03:19;;;;;;;6.10;4.80;;;;;;;5.81;86.87;96160.01;107041;1270;22583;-87
2023/11/13 08:05:45;;;;;;;5.80;4.50;;;;;;;5.85;86.97;96158.58;107153;1277;138660;-87
2023/11/13 08:08:16;;;;;;;4.80;4.00;;;;;;;5.87;86.92;96161.46;107242;1277;22537;-87
2023/11/13 08:10:51;;;;;;;6.00;4.40;;;;;;;5.91;86.80;96164.75;107266;1269;24181;-87
2023/11/13 08:13:19;;;;;;;5.70;4.30;;;;;;;5.95;86.70;96161.91;106983;1277;138255;-87
2023/11/13 08:15:45;;;;;;;7.20;3.80;;;;;;;5.99;87.14;96158.38;107229;1277;24275;-87
2023/11/13 08:18:14;;;;;;;5.10;4.00;;;;;;;6.05;87.20;96158.69;106931;1278;138844;-87
2023/11/13 08:20:45;;;;;;;5.50;5.00;;;;;;;6.10;87.08;96154.53;107172;1277;24265;-87
2023/11/13 08:23:13;;;;;;;7.00;4.40;;;;;;;6.13;86.97;96148.38;110216;1277;140021;-87
2023/11/13 08:25:50;;;;;;;5.60;4.60;;;;;;;6.16;86.67;96146.17;110322;1276;22172;-87
2023/11/13 08:28:16;;;;;;;5.10;4.10;;;;;;;6.16;86.07;96146.08;110315;1264;22332;-88
2023/11/13 08:30:45;;;;;;;5.20;4.20;;;;;;;6.19;86.15;96147.20;110216;1271;138580;-88
2023/11/13 08:33:12;;;;;;;7.60;4.60;;;;;;;6.22;86.06;96148.23;110067;1277;22205;-88
2023/11/13 08:35:38;;;;;;;6.30;4.00;;;;;;;6.26;86.34;96152.29;110224;1277;138526;-86
2023/11/13 08:38:05;;;;;;;5.70;3.90;;;;;;;6.29;85.57;96155.73;110176;1276;230133;-85
2023/11/13 08:40:30;;;;;;;6.60;4.50;;;;;;;6.29;85.13;96153.36;110352;1270;22856;-85
2023/11/13 08:42:56;;;;;;;9.00;6.20;;;;;;;6.31;85.06;96155.48;110194;1277;139798;-86
2023/11/13 08:45:24;;;;;;;7.50;5.70;;;;;;;6.33;85.11;96150.38;110088;1268;22173;-85
2023/11/13 08:47:53;;;;;;;4.10;3.50;;;;;;;6.35;84.70;96150.17;109940;1278;138758;-86
2023/11/13 08:50:21;;;;;;;5.30;4.80;;;;;;;6.33;84.61;96144.31;108793;1270;22541;-86
2023/11/13 08:52:48;;;;;;;5.60;4.50;;;;;;;6.33;84.34;96143.96;107161;1273;22535;-87
2023/11/13 08:55:17;;;;;;;3.80;3.30;;;;;;;6.32;84.35;96139.25;110041;1273;138021;-88
2023/11/13 08:57:43;;;;;;;5.00;3.00;;;;;;;6.31;84.34;96139.19;110132;1273;22240;-87
2023/11/13 09:00:18;;;;;;;4.00;2.50;;;;;;;6.31;84.31;96134.26;109986;1277;138866;-88
2023/11/13 09:02:48;;;;;;;3.50;2.40;;;;;;;6.29;84.26;96128.90;109113;1277;22651;-87
2023/11/13 09:05:15;;;;;;;3.10;2.30;;;;;;;6.28;84.26;96130.03;109126;1277;138476;-87
2023/11/13 09:07:41;;;;;;;3.90;2.60;;;;;;;6.28;84.27;96128.06;107027;1277;24263;-87
2023/11/13 09:10:11;;;;;;;2.50;2.10;;;;;;;6.24;84.01;96124.48;107266;1276;25094;-87
2023/11/13 09:12:41;;;;;;;2.80;2.30;;;;;;;6.20;84.23;96127.17;107015;1277;137973;-87
2023/11/13 09:15:13;;;;;;;4.50;2.40;;;;;;;6.17;84.09;96131.25;106984;1278;22660;-87
2023/11/13 09:17:46;;;;;;;4.50;3.10;;;;;;;6.14;84.25;96130.38;109745;1273;139225;-87
2023/11/13 09:20:21;;;;;;;3.90;2.30;;;;;;;6.12;84.54;96132.73;107082;1271;22580;-86
2023/11/13 09:22:47;;;;;;;3.80;2.80;;;;;;;6.13;84.34;96130.86;107255;1276;23895;-87
2023/11/13 09:25:14;;;;;;;3.50;2.60;;;;;;;6.15;84.81;96126.66;107142;1271;139450;-87
2023/11/13 09:27:46;;;;;;;3.80;3.20;;;;;;;6.17;84.88;96127.45;107247;1270;22534;-88
2023/11/13 09:30:14;;;;;;;4.40;3.40;;;;;;;6.20;84.77;96128.91;110215;1277;138898;-87
2023/11/13 09:32:48;;;;;;;7.10;4.90;;;;;;;6.20;84.41;96127.30;108794;1277;24305;-87
2023/11/13 09:35:18;;;;;;;9.00;6.60;;;;;;;6.22;84.76;96120.95;107188;1277;137980;-86
2023/11/13 09:37:48;;;;;;;6.00;5.20;;;;;;;6.23;85.04;96122.14;107192;1278;22541;-87
2023/11/13 09:40:15;;;;;;;6.20;4.40;;;;;;;6.25;85.26;96123.04;109362;1270;22555;-87
2023/11/13 09:42:54;;;;;;;7.10;4.40;;;;;;;6.26;84.41;96122.52;110213;1276;138081;-87
2023/11/13 09:45:21;;;;;;;6.60;5.00;;;;;;;6.27;85.05;96122.07;110144;1276;22669;-88
2023/11/13 09:47:47;;;;;;;9.80;5.60;;;;;;;6.30;85.50;96121.41;110071;1277;139834;-87
2023/11/13 09:50:17;;;;;;;8.90;5.50;;;;;;;6.34;85.68;96123.08;110119;1276;22538;-88
2023/11/13 09:52:47;;;;;;;6.20;4.70;;;;;;;6.38;85.68;96125.91;110102;1277;22202;-88
2023/11/13 09:55:18;;;;;;;6.90;4.90;;;;;;;6.42;85.37;96123.39;110206;1276;138036;-88
2023/11/13 09:57:45;;;;;;;8.00;5.00;;;;;;;6.46;85.63;96121.77;109093;1277;26513;-85
2023/11/13 10:00:16;;;;;;;6.70;3.80;;;;;;;6.50;85.57;96123.25;106906;1276;138298;-87
2023/11/13 10:02:46;;;;;;;8.60;4.70;;;;;;;6.50;84.99;96116.25;107430;1277;25349;-87
2023/11/13 10:05:16;;;;;;;9.10;5.20;;;;;;;6.48;84.80;96113.83;106921;1265;139101;-87
2023/11/13 10:07:48;;;;;;;8.00;5.70;;;;;;;6.47;84.71;96103.99;107068;1276;24206;-86
2023/11/13 10:10:19;;;;;;;8.20;5.50;;;;;;;6.49;85.11;96102.73;107262;1270;24203;-87
2023/11/13 10:12:45;;;;;;;8.20;6.00;;;;;;;6.50;85.14;96104.70;110230;1270;138555;-88
2023/11/13 10:15:14;;;;;;;7.80;5.00;;;;;;;6.51;85.45;96103.40;108179;1277;22584;-87
2023/11/13 10:17:42;;;;;;;7.70;5.10;;;;;;;6.51;84.86;96103.02;110187;1277;138831;-88
2023/11/13 10:20:10;;;;;;;7.40;6.00;;;;;;;6.48;84.76;96101.56;108192;1277;22561;-86
2023/11/13 10:22:37;;;;;;;6.60;6.00;;;;;;;6.48;84.69;96101.63;107330;1276;24411;-87
2023/11/13 10:25:06;;;;;;;10.50;6.50;;;;;;;6.47;84.70;96099.27;107088;1272;138626;-87
2023/11/13 10:27:32;;;;;;;9.40;6.10;;;;;;;6.48;84.84;96096.30;107248;1277;22585;-87
2023/11/13 10:30:03;;;;;;;8.80;6.90;;;;;;;6.53;85.31;96091.30;107083;1277;138258;-87
2023/11/13 10:32:30;;;;;;;10.00;7.00;;;;;;;6.56;85.21;96091.83;107036;1276;22532;-87
2023/11/13 10:34:56;;;;;;;9.90;8.10;;;;;;;6.60;85.24;96092.95;110327;1261;22935;-88
2023/11/13 10:37:23;;;;;;;8.70;6.60;;;;;;;6.65;85.26;96094.64;109056;1270;139244;-87
2023/11/13 10:39:49;;;;;;;9.50;8.30;;;;;;;6.70;85.61;96094.65;107255;1277;24466;-87
2023/11/13 10:42:22;;;;;;;9.10;5.80;;;;;;;6.73;85.57;96094.55;107101;1270;138632;-87
2023/11/13 10:44:58;;;;;;;9.10;6.70;;;;;;;6.74;84.69;96094.86;107232;1277;24400;-87
2023/11/13 10:47:26;;;;;;;6.30;5.10;;;;;;;6.76;84.57;96096.25;107212;1277;138002;-87
2023/11/13 10:49:53;;;;;;;10.30;5.20;;;;;;;6.76;84.65;96095.17;108085;1276;22589;-87
2023/11/13 10:52:23;;;;;;;5.90;4.70;;;;;;;6.77;84.37;96094.72;107287;1272;24370;-87
2023/11/13 10:54:51;;;;;;;6.10;5.10;;;;;;;6.77;83.91;96098.75;107134;1270;138684;-87
2023/11/13 10:57:19;;;;;;;7.50;5.70;;;;;;;6.77;84.00;96103.70;110299;1277;22394;-87
2023/11/13 10:59:46;;;;;;;8.00;5.70;;;;;;;6.77;84.11;96101.95;110267;1277;138076;-87
2023/11/13 11:02:36;;;;;;;18.10;12.70;;;;;;;6.78;83.61;96090.61;110368;1277;22248;-87
2023/11/13 11:05:10;;;;;;;10.70;8.30;;;;;;;6.80;84.24;96091.32;110151;1276;22206;-87
2023/11/13 11:07:38;;;;;;;21.90;16.00;;;;;;;6.84;83.89;96094.04;110172;1274;22199;-86
2023/11/13 11:10:05;;;;;;;9.90;7.80;;;;;;;6.84;83.17;96090.48;110180;1277;22251;-85
2023/11/13 11:12:37;;;;;;;11.60;8.80;;;;;;;6.85;83.28;96088.00;110242;1277;138616;-86
2023/11/13 11:15:32;;;;;;;22.30;12.40;;;;;;;6.90;83.72;96083.98;107737;1277;22655;-86
2023/11/13 11:18:19;;;;;;;15.70;12.00;;;;;;;6.98;84.29;96082.27;107168;1276;138603;-86
2023/11/13 11:21:15;;;;;;;9.20;7.00;;;;;;;7.01;82.79;96081.34;107094;1277;24268;-87
2023/11/13 11:23:56;;;;;;;10.60;7.80;;;;;;;7.00;83.53;96076.07;106914;1269;138376;-87
2023/11/13 11:26:22;;;;;;;12.30;9.00;;;;;;;7.03;83.64;96067.64;107266;1277;25267;-87
2023/11/13 11:28:48;;;;;;;7.20;5.30;;;;;;;7.04;83.15;96065.23;107270;1271;22554;-87
2023/11/13 11:31:38;;;;;;;6.10;4.90;;;;;;;7.03;82.83;96060.36;107124;1278;137828;-86